Time;durP1;ratioP1;P1;durP2;ratioP2;P2;SDS_P1;SDS_P2;PMS_P1;PMS_P2;Temp;Humidity;BMP_temperature;BMP_pressure;BME280_temperature;BME280_humidity;BME280_pressure;Samples;Min_cycle;Max_cycle;Signal;HPM_P1;HPM_P2
2023/04/08 00:04:30;;;;;;;13.75;6.78;;;;;;;;;;10412041;28;20022;-58
2023/04/08 00:09:31;;;;;;;9.10;5.43;;;;;;;;;;10412543;28;20481;-57
2023/04/08 00:14:31;;;;;;;11.50;5.88;;;;;;;;;;10411588;28;20021;-57
2023/04/08 00:19:33;;;;;;;8.57;5.70;;;;;;;;;;10412521;28;20060;-57
2023/04/08 00:24:34;;;;;;;10.45;5.50;;;;;;;;;;10416593;28;20029;-61
2023/04/08 00:29:35;;;;;;;9.93;5.93;;;;;;;;;;10412173;28;20037;-57
2023/04/08 00:34:36;;;;;;;10.63;6.05;;;;;;;;;;10412017;28;20132;-57
2023/04/08 00:39:36;;;;;;;9.43;5.80;;;;;;;;;;10412398;28;20580;-57
2023/04/08 00:44:37;;;;;;;9.32;5.57;;;;;;;;;;10410047;28;20112;-57
2023/04/08 00:49:38;;;;;;;11.88;5.85;;;;;;;;;;10410013;28;20033;-57
2023/04/08 00:54:38;;;;;;;11.05;6.20;;;;;;;;;;10396787;28;20041;-57
2023/04/08 00:59:40;;;;;;;9.63;6.13;;;;;;;;;;10408874;28;20080;-57
2023/04/08 01:04:54;;;;;;;9.80;5.70;;;;;;;;;;10408978;28;20036;-57
2023/04/08 01:10:01;;;;;;;9.90;6.25;;;;;;;;;;10410894;28;20029;-57
2023/04/08 01:15:09;;;;;;;9.70;6.03;;;;;;;;;;10410022;28;20112;-57
2023/04/08 01:20:12;;;;;;;10.45;5.68;;;;;;;;;;10409812;28;20029;-57
2023/04/08 01:25:23;;;;;;;11.07;6.05;;;;;;;;;;10412645;28;20021;-57
2023/04/08 01:30:24;;;;;;;11.75;6.32;;;;;;;;;;10408320;28;20037;-57
2023/04/08 01:35:25;;;;;;;9.10;5.97;;;;;;;;;;10405242;28;20029;-57
2023/04/08 01:40:26;;;;;;;8.52;5.72;;;;;;;;;;10410109;28;20346;-57
2023/04/08 01:45:28;;;;;;;9.93;5.65;;;;;;;;;;10408130;28;20264;-57
2023/04/08 01:50:30;;;;;;;8.82;5.82;;;;;;;;;;10408305;28;20095;-57
2023/04/08 01:55:32;;;;;;;9.57;6.07;;;;;;;;;;10407544;28;20508;-57
2023/04/08 02:00:34;;;;;;;13.00;5.95;;;;;;;;;;10407174;28;20018;-57
2023/04/08 02:05:35;;;;;;;10.32;6.35;;;;;;;;;;10406726;28;20037;-57
2023/04/08 02:10:35;;;;;;;8.50;5.90;;;;;;;;;;10409067;28;20045;-57
2023/04/08 02:15:42;;;;;;;9.80;6.10;;;;;;;;;;10407136;28;20566;-57
2023/04/08 02:20:49;;;;;;;14.55;6.40;;;;;;;;;;10417329;28;20025;-57
2023/04/08 02:25:54;;;;;;;8.20;5.63;;;;;;;;;;10417203;28;20381;-57
2023/04/08 02:30:56;;;;;;;7.93;5.47;;;;;;;;;;10408071;28;20393;-58
2023/04/08 02:35:58;;;;;;;7.65;6.03;;;;;;;;;;10407187;28;20026;-57
2023/04/08 02:40:59;;;;;;;9.50;5.90;;;;;;;;;;10414473;28;20041;-57
2023/04/08 02:46:02;;;;;;;8.63;5.80;;;;;;;;;;10415649;28;20033;-57
2023/04/08 02:51:03;;;;;;;8.35;5.72;;;;;;;;;;10408870;28;20053;-57
2023/04/08 02:56:04;;;;;;;8.13;5.63;;;;;;;;;;10414338;28;20028;-57
2023/04/08 03:01:05;;;;;;;9.13;5.45;;;;;;;;;;10415675;28;20399;-65
2023/04/08 03:06:06;;;;;;;7.53;5.78;;;;;;;;;;10416597;28;20045;-57
2023/04/08 03:11:06;;;;;;;6.25;4.75;;;;;;;;;;10415125;28;20040;-57
2023/04/08 03:16:07;;;;;;;9.57;5.53;;;;;;;;;;10415037;28;20095;-57
2023/04/08 03:21:07;;;;;;;8.27;5.15;;;;;;;;;;10414945;28;20025;-57
2023/04/08 03:26:08;;;;;;;7.70;5.47;;;;;;;;;;10415539;28;20519;-57
2023/04/08 03:31:09;;;;;;;7.25;5.55;;;;;;;;;;10415589;28;20033;-57
2023/04/08 03:36:11;;;;;;;7.15;5.32;;;;;;;;;;10413692;28;20034;-57
2023/04/08 03:41:11;;;;;;;8.60;5.53;;;;;;;;;;10413597;28;20029;-57
2023/04/08 03:46:12;;;;;;;7.82;5.53;;;;;;;;;;10414410;28;20094;-57
2023/04/08 03:51:12;;;;;;;8.52;5.63;;;;;;;;;;10413064;28;20041;-57
2023/04/08 03:56:13;;;;;;;9.63;5.72;;;;;;;;;;10413998;28;20025;-57
2023/04/08 04:01:13;;;;;;;8.50;5.80;;;;;;;;;;10413918;28;20347;-57
2023/04/08 04:06:14;;;;;;;8.82;5.25;;;;;;;;;;10413919;28;20377;-57
2023/04/08 04:11:15;;;;;;;7.20;5.13;;;;;;;;;;10411851;28;20500;-57
2023/04/08 04:16:15;;;;;;;7.50;4.93;;;;;;;;;;10412409;28;20029;-57
2023/04/08 04:21:16;;;;;;;6.78;4.88;;;;;;;;;;10412680;28;20088;-57
2023/04/08 04:26:17;;;;;;;8.02;5.65;;;;;;;;;;10412673;28;20028;-64
2023/04/08 04:31:25;;;;;;;6.97;5.18;;;;;;;;;;10411543;28;20029;-57
2023/04/08 04:36:26;;;;;;;6.87;4.70;;;;;;;;;;10411304;28;20369;-57
2023/04/08 04:41:26;;;;;;;6.60;4.50;;;;;;;;;;10411609;28;20029;-57
2023/04/08 04:46:27;;;;;;;7.00;5.22;;;;;;;;;;10411929;28;20013;-57
2023/04/08 04:51:32;;;;;;;8.68;5.57;;;;;;;;;;10411216;28;20049;-57
2023/04/08 04:56:32;;;;;;;7.00;5.40;;;;;;;;;;10411157;28;20060;-57
2023/04/08 05:01:33;;;;;;;7.90;4.82;;;;;;;;;;10411976;28;20040;-57
2023/04/08 05:06:34;;;;;;;7.25;4.82;;;;;;;;;;10410291;28;20033;-57
2023/04/08 05:11:35;;;;;;;8.73;4.75;;;;;;;;;;10409687;28;20084;-57
2023/04/08 05:16:35;;;;;;;7.57;5.05;;;;;;;;;;10410126;28;20032;-58
2023/04/08 05:21:36;;;;;;;5.82;4.63;;;;;;;;;;10411496;28;20265;-57
2023/04/08 05:26:36;;;;;;;6.97;4.72;;;;;;;;;;10413672;28;20103;-58
2023/04/08 05:31:37;;;;;;;6.18;4.38;;;;;;;;;;10409551;28;20381;-57
2023/04/08 05:36:37;;;;;;;5.78;4.70;;;;;;;;;;10409630;28;20026;-57
2023/04/08 05:41:38;;;;;;;6.75;5.18;;;;;;;;;;10409124;28;20053;-57
2023/04/08 05:46:39;;;;;;;4.93;4.43;;;;;;;;;;10408599;28;20025;-58
2023/04/08 05:51:39;;;;;;;5.97;4.25;;;;;;;;;;10409030;28;20045;-57
2023/04/08 05:56:40;;;;;;;6.10;4.38;;;;;;;;;;10408367;28;20025;-57
2023/04/08 06:01:41;;;;;;;5.40;4.45;;;;;;;;;;10410257;28;20021;-71
2023/04/08 06:06:41;;;;;;;8.38;4.50;;;;;;;;;;10409420;28;20044;-57
2023/04/08 06:11:42;;;;;;;5.35;3.90;;;;;;;;;;10409419;28;20033;-57
2023/04/08 06:16:43;;;;;;;6.13;4.68;;;;;;;;;;10409394;28;20033;-57
2023/04/08 06:21:44;;;;;;;5.25;4.13;;;;;;;;;;10418253;28;20056;-58
2023/04/08 06:26:46;;;;;;;5.88;4.25;;;;;;;;;;10421552;28;20029;-58
2023/04/08 06:31:47;;;;;;;7.10;4.53;;;;;;;;;;10420360;28;20037;-58
2023/04/08 06:36:49;;;;;;;6.53;4.00;;;;;;;;;;10422154;28;20036;-58
2023/04/08 06:41:49;;;;;;;5.78;3.90;;;;;;;;;;10420859;28;20032;-58
2023/04/08 06:46:50;;;;;;;8.48;3.78;;;;;;;;;;10420796;28;20361;-58
2023/04/08 06:51:51;;;;;;;5.68;3.65;;;;;;;;;;10423256;28;20045;-58
2023/04/08 06:56:52;;;;;;;5.38;3.40;;;;;;;;;;10421075;28;20484;-61
2023/04/08 07:01:52;;;;;;;5.07;3.88;;;;;;;;;;10420655;28;20481;-58
2023/04/08 07:06:53;;;;;;;4.63;3.42;;;;;;;;;;10420647;28;20150;-59
2023/04/08 07:11:54;;;;;;;9.10;4.32;;;;;;;;;;10421218;28;20040;-58
2023/04/08 07:16:55;;;;;;;7.63;3.72;;;;;;;;;;10417280;28;20060;-58
2023/04/08 07:21:56;;;;;;;5.55;3.85;;;;;;;;;;10418315;28;20037;-62
2023/04/08 07:26:57;;;;;;;4.88;3.85;;;;;;;;;;10413287;28;20060;-59
2023/04/08 07:31:57;;;;;;;12.50;3.75;;;;;;;;;;10414069;28;20040;-59
2023/04/08 07:36:58;;;;;;;48.70;6.22;;;;;;;;;;10414983;28;20091;-58
2023/04/08 07:41:58;;;;;;;31.42;5.30;;;;;;;;;;10413945;28;20040;-59
2023/04/08 07:46:59;;;;;;;25.95;5.30;;;;;;;;;;10408528;28;20736;-58
2023/04/08 07:52:00;;;;;;;16.50;5.35;;;;;;;;;;10408990;28;20052;-59
2023/04/08 07:57:01;;;;;;;24.33;5.72;;;;;;;;;;10412532;28;20025;-59
2023/04/08 08:02:02;;;;;;;12.75;5.88;;;;;;;;;;10411334;28;20033;-59
2023/04/08 08:07:02;;;;;;;22.00;6.00;;;;;;;;;;10411414;28;20022;-58
2023/04/08 08:12:03;;;;;;;28.15;6.15;;;;;;;;;;10411454;28;20355;-58
2023/04/08 08:17:04;;;;;;;18.08;5.43;;;;;;;;;;10411268;28;20108;-58
2023/04/08 08:22:04;;;;;;;18.20;5.53;;;;;;;;;;10410854;28;20033;-58
2023/04/08 08:27:05;;;;;;;31.40;7.80;;;;;;;;;;10415507;28;20021;-58
2023/04/08 08:32:06;;;;;;;19.75;5.20;;;;;;;;;;10412643;28;20025;-58
2023/04/08 08:37:06;;;;;;;18.10;5.32;;;;;;;;;;10411295;28;20095;-58
2023/04/08 08:42:21;;;;;;;22.10;5.45;;;;;;;;;;10398281;28;20413;-58
2023/04/08 08:47:22;;;;;;;15.82;5.30;;;;;;;;;;10407302;28;20017;-59
2023/04/08 08:52:23;;;;;;;14.35;5.60;;;;;;;;;;10409002;28;20038;-59
2023/04/08 08:57:23;;;;;;;15.85;5.55;;;;;;;;;;10409504;28;20160;-58
2023/04/08 09:02:27;;;;;;;14.20;4.80;;;;;;;;;;10406434;28;20033;-58
2023/04/08 09:07:30;;;;;;;12.73;4.75;;;;;;;;;;10409096;28;20026;-58
2023/04/08 09:12:31;;;;;;;11.48;4.95;;;;;;;;;;10409011;28;20035;-58
2023/04/08 09:17:39;;;;;;;13.35;4.95;;;;;;;;;;10408085;28;20040;-58
2023/04/08 09:23:01;;;;;;;10.63;4.70;;;;;;;;;;10409064;28;20037;-58
2023/04/08 09:28:02;;;;;;;15.45;5.47;;;;;;;;;;10413726;28;20022;-58
2023/04/08 09:33:06;;;;;;;10.75;4.68;;;;;;;;;;10408994;28;20033;-58
2023/04/08 09:38:06;;;;;;;9.73;4.15;;;;;;;;;;10409279;28;20037;-58
2023/04/08 09:43:11;;;;;;;12.18;4.40;;;;;;;;;;10408579;28;20078;-58
2023/04/08 09:48:23;;;;;;;10.05;4.68;;;;;;;;;;10407048;28;20029;-58
2023/04/08 09:53:33;;;;;;;13.48;4.90;;;;;;;;;;10408464;28;20052;-59
2023/04/08 09:58:58;;;;;;;11.25;5.18;;;;;;;;;;10407352;28;20104;-58
2023/04/08 10:04:00;;;;;;;10.85;5.10;;;;;;;;;;10408911;28;20033;-59
2023/04/08 10:09:03;;;;;;;11.18;5.13;;;;;;;;;;10406951;28;20033;-58
2023/04/08 10:14:03;;;;;;;13.30;6.07;;;;;;;;;;10407757;28;20109;-59
2023/04/08 10:19:41;;;;;;;12.55;7.53;;;;;;;;;;10408256;28;20022;-58
2023/04/08 10:25:32;;;;;;;13.27;7.82;;;;;;;;;;10408444;28;20083;-58
2023/04/08 10:30:33;;;;;;;15.38;9.32;;;;;;;;;;10396306;28;20501;-58
2023/04/08 10:35:41;;;;;;;18.33;9.85;;;;;;;;;;10408020;28;20025;-59
2023/04/08 10:40:43;;;;;;;18.30;10.47;;;;;;;;;;10407907;28;20033;-58
2023/04/08 10:45:45;;;;;;;19.40;11.13;;;;;;;;;;10396233;28;20026;-59
2023/04/08 10:51:04;;;;;;;32.35;14.63;;;;;;;;;;10406756;28;20046;-59
2023/04/08 10:56:16;;;;;;;39.40;18.02;;;;;;;;;;10401369;28;20025;-58
2023/04/08 11:01:18;;;;;;;46.85;19.77;;;;;;;;;;10412738;28;20061;-58
2023/04/08 11:06:18;;;;;;;49.22;23.42;;;;;;;;;;10414323;28;20273;-58
2023/04/08 11:11:20;;;;;;;52.60;24.90;;;;;;;;;;10415721;28;20618;-58
2023/04/08 11:16:21;;;;;;;65.28;30.02;;;;;;;;;;10402878;28;20179;-59
2023/04/08 11:21:28;;;;;;;75.03;33.88;;;;;;;;;;10413280;28;20477;-58
2023/04/08 11:26:29;;;;;;;80.70;36.75;;;;;;;;;;10416489;28;20180;-63
2023/04/08 11:31:31;;;;;;;85.20;42.50;;;;;;;;;;10413521;28;20033;-60
2023/04/08 11:36:34;;;;;;;95.07;46.35;;;;;;;;;;10414391;28;20029;-59
2023/04/08 11:41:40;;;;;;;114.47;56.72;;;;;;;;;;10414325;28;20488;-59
2023/04/08 11:46:54;;;;;;;126.35;63.38;;;;;;;;;;10413259;28;20470;-59
2023/04/08 11:52:00;;;;;;;134.25;69.40;;;;;;;;;;10413384;28;20041;-58
2023/04/08 11:57:01;;;;;;;151.57;74.13;;;;;;;;;;10413778;28;20025;-58
2023/04/08 12:02:02;;;;;;;164.77;83.50;;;;;;;;;;10399151;28;20029;-58
2023/04/08 12:07:03;;;;;;;183.40;92.15;;;;;;;;;;10411146;28;20381;-59
2023/04/08 12:12:04;;;;;;;197.43;99.00;;;;;;;;;;10405280;28;20276;-59
2023/04/08 12:17:04;;;;;;;206.25;100.63;;;;;;;;;;10403547;28;20037;-59
2023/04/08 12:22:05;;;;;;;181.25;89.30;;;;;;;;;;10399102;28;20500;-59
2023/04/08 12:27:06;;;;;;;163.52;79.47;;;;;;;;;;10414850;28;20550;-58
2023/04/08 12:32:06;;;;;;;167.77;81.25;;;;;;;;;;10396526;28;20125;-58
2023/04/08 12:37:07;;;;;;;180.40;86.55;;;;;;;;;;10387732;28;20026;-59
2023/04/08 12:42:07;;;;;;;188.82;89.65;;;;;;;;;;10408222;28;20547;-58
2023/04/08 12:47:08;;;;;;;191.10;89.70;;;;;;;;;;10409584;28;20408;-58
2023/04/08 12:52:09;;;;;;;180.15;87.00;;;;;;;;;;10408613;28;20050;-58
2023/04/08 12:57:09;;;;;;;171.75;81.20;;;;;;;;;;10399960;28;20116;-59
2023/04/08 13:02:10;;;;;;;175.18;77.90;;;;;;;;;;10407898;28;20397;-58
2023/04/08 13:07:10;;;;;;;165.02;76.80;;;;;;;;;;10409517;28;20083;-60
2023/04/08 13:12:11;;;;;;;152.73;73.75;;;;;;;;;;10408392;28;20477;-58
2023/04/08 13:17:12;;;;;;;133.70;65.30;;;;;;;;;;10408509;28;20033;-59
2023/04/08 13:22:13;;;;;;;142.00;65.25;;;;;;;;;;10407444;28;20052;-58
2023/04/08 13:27:13;;;;;;;136.90;63.58;;;;;;;;;;10412122;28;20041;-58
2023/04/08 13:32:14;;;;;;;126.88;59.60;;;;;;;;;;10410778;28;20397;-58
2023/04/08 13:37:15;;;;;;;123.68;59.15;;;;;;;;;;10409101;28;20025;-58
2023/04/08 13:42:16;;;;;;;115.95;56.33;;;;;;;;;;10408816;28;20052;-58
2023/04/08 13:47:16;;;;;;;118.05;53.35;;;;;;;;;;10409088;28;20033;-59
2023/04/08 13:52:17;;;;;;;113.97;50.28;;;;;;;;;;10408556;28;20040;-58
2023/04/08 13:57:18;;;;;;;102.25;48.08;;;;;;;;;;10408117;28;20026;-58
2023/04/08 14:02:18;;;;;;;95.10;44.25;;;;;;;;;;10404417;28;20033;-58
2023/04/08 14:07:19;;;;;;;97.78;43.38;;;;;;;;;;10404335;28;20069;-58
2023/04/08 14:12:19;;;;;;;98.47;46.50;;;;;;;;;;10406419;28;20032;-58
2023/04/08 14:17:20;;;;;;;102.07;47.30;;;;;;;;;;10404717;28;20030;-60
2023/04/08 14:22:20;;;;;;;103.45;44.67;;;;;;;;;;10405684;28;20044;-58
2023/04/08 14:27:21;;;;;;;111.82;45.88;;;;;;;;;;10404527;28;20072;-58
2023/04/08 14:32:22;;;;;;;99.88;42.25;;;;;;;;;;10394868;28;20062;-59
2023/04/08 14:37:22;;;;;;;76.97;34.90;;;;;;;;;;10392675;28;20436;-58
2023/04/08 14:42:23;;;;;;;82.10;35.92;;;;;;;;;;10413668;28;20064;-58
2023/04/08 14:47:23;;;;;;;79.47;33.53;;;;;;;;;;10402516;28;20451;-58
2023/04/08 14:52:24;;;;;;;71.65;31.13;;;;;;;;;;10429340;23;20057;-54
2023/04/08 14:57:25;;;;;;;67.93;30.77;;;;;;;;;;10412951;28;20083;-49
2023/04/08 15:02:25;;;;;;;70.85;29.30;;;;;;;;;;10413734;28;20025;-51
2023/04/08 15:07:26;;;;;;;59.95;26.02;;;;;;;;;;10413579;28;20040;-52
2023/04/08 15:12:27;;;;;;;58.70;25.25;;;;;;;;;;10413443;28;20036;-51
2023/04/08 15:17:28;;;;;;;61.42;23.48;;;;;;;;;;10413392;28;20145;-50
2023/04/08 15:22:29;;;;;;;53.92;22.92;;;;;;;;;;10413336;28;20211;-51
2023/04/08 15:27:30;;;;;;;58.38;21.13;;;;;;;;;;10418013;28;20025;-52
2023/04/08 15:32:31;;;;;;;49.30;21.40;;;;;;;;;;10415187;28;20029;-50
2023/04/08 15:37:31;;;;;;;46.17;20.58;;;;;;;;;;10413146;28;20026;-50
2023/04/08 15:42:32;;;;;;;42.88;18.70;;;;;;;;;;10413083;28;20021;-50
2023/04/08 15:47:34;;;;;;;46.42;19.50;;;;;;;;;;10400647;28;20025;-50
2023/04/08 15:52:34;;;;;;;45.15;17.40;;;;;;;;;;10413287;28;20040;-53
2023/04/08 15:57:35;;;;;;;43.38;18.15;;;;;;;;;;10413271;28;20052;-52
2023/04/08 16:02:36;;;;;;;40.30;17.52;;;;;;;;;;10413902;28;20038;-51
2023/04/08 16:07:37;;;;;;;45.00;16.58;;;;;;;;;;10413465;28;20469;-52
2023/04/08 16:12:37;;;;;;;33.15;15.02;;;;;;;;;;10413045;28;20040;-52
2023/04/08 16:17:38;;;;;;;30.50;14.45;;;;;;;;;;10413049;28;20029;-52
2023/04/08 16:22:38;;;;;;;29.35;14.32;;;;;;;;;;10413244;28;20037;-51
2023/04/08 16:27:39;;;;;;;27.45;13.45;;;;;;;;;;10416961;28;20457;-56
2023/04/08 16:32:40;;;;;;;29.60;13.25;;;;;;;;;;10411982;28;20029;-50
2023/04/08 16:37:41;;;;;;;26.98;12.55;;;;;;;;;;10412451;28;20064;-56
2023/04/08 16:42:41;;;;;;;25.73;13.10;;;;;;;;;;10410973;28;20037;-55
2023/04/08 16:47:43;;;;;;;26.15;12.38;;;;;;;;;;10411785;28;20351;-53
2023/04/08 16:52:48;;;;;;;24.38;11.32;;;;;;;;;;10410442;28;20045;-52
2023/04/08 16:57:49;;;;;;;30.58;11.68;;;;;;;;;;10410261;28;20076;-53
2023/04/08 17:02:49;;;;;;;23.52;10.55;;;;;;;;;;10410621;28;20083;-49
2023/04/08 17:07:50;;;;;;;21.45;10.52;;;;;;;;;;10409955;28;20029;-52
2023/04/08 17:12:51;;;;;;;20.20;10.68;;;;;;;;;;10409907;28;20108;-53
2023/04/08 17:17:52;;;;;;;22.95;9.65;;;;;;;;;;10410730;28;20025;-51
2023/04/08 17:22:52;;;;;;;18.00;8.95;;;;;;;;;;10409799;28;20048;-50
2023/04/08 17:27:53;;;;;;;21.63;10.07;;;;;;;;;;10414308;28;20044;-51
2023/04/08 17:32:53;;;;;;;15.60;8.73;;;;;;;;;;10397253;28;20431;-55
2023/04/08 17:37:54;;;;;;;20.10;9.65;;;;;;;;;;10410104;28;20037;-52
2023/04/08 17:42:56;;;;;;;15.93;8.23;;;;;;;;;;10409333;28;20021;-52
2023/04/08 17:47:57;;;;;;;15.65;8.18;;;;;;;;;;10409164;28;20166;-51
2023/04/08 17:52:58;;;;;;;20.00;7.35;;;;;;;;;;10408645;28;20103;-51
2023/04/08 17:57:59;;;;;;;14.60;7.85;;;;;;;;;;10409128;28;20382;-51
2023/04/08 18:02:59;;;;;;;13.68;7.40;;;;;;;;;;10407942;28;20030;-52
2023/04/08 18:08:00;;;;;;;14.10;7.32;;;;;;;;;;10408014;28;20025;-51
2023/04/08 18:13:01;;;;;;;11.82;6.82;;;;;;;;;;10408694;28;20021;-52
2023/04/08 18:18:02;;;;;;;11.10;6.80;;;;;;;;;;10408227;28;20040;-50
2023/04/08 18:23:03;;;;;;;13.13;6.40;;;;;;;;;;10409877;28;20124;-50
2023/04/08 18:28:04;;;;;;;10.35;6.00;;;;;;;;;;10412779;28;20025;-51
2023/04/08 18:33:05;;;;;;;10.32;5.97;;;;;;;;;;10409399;28;20027;-53
2023/04/08 18:38:06;;;;;;;9.02;5.57;;;;;;;;;;10408144;28;20101;-48
2023/04/08 18:43:07;;;;;;;10.05;5.43;;;;;;;;;;10408766;28;20365;-50
2023/04/08 18:48:07;;;;;;;9.38;6.13;;;;;;;;;;10408862;28;20385;-53
2023/04/08 18:53:08;;;;;;;10.73;5.82;;;;;;;;;;10408054;28;20053;-50
2023/04/08 18:58:09;;;;;;;8.55;5.32;;;;;;;;;;10408201;28;20033;-53
2023/04/08 19:03:09;;;;;;;10.25;4.95;;;;;;;;;;10408921;28;20025;-50
2023/04/08 19:08:10;;;;;;;11.07;5.28;;;;;;;;;;10407755;28;20461;-50
2023/04/08 19:13:11;;;;;;;9.57;4.75;;;;;;;;;;10408096;28;20075;-50
2023/04/08 19:18:11;;;;;;;7.97;4.80;;;;;;;;;;10406744;28;20354;-49
2023/04/08 19:23:12;;;;;;;9.73;4.85;;;;;;;;;;10413892;28;20362;-49
2023/04/08 19:28:13;;;;;;;6.45;4.38;;;;;;;;;;10416077;28;20492;-51
2023/04/08 19:33:14;;;;;;;7.45;4.22;;;;;;;;;;10414298;28;20030;-53
2023/04/08 19:38:15;;;;;;;7.15;4.50;;;;;;;;;;10415213;28;20033;-48
2023/04/08 19:43:16;;;;;;;6.93;4.28;;;;;;;;;;10411569;28;20025;-53
2023/04/08 19:48:17;;;;;;;7.05;3.63;;;;;;;;;;10412800;28;20499;-49
2023/04/08 19:53:17;;;;;;;7.70;4.40;;;;;;;;;;10402126;28;20037;-52
2023/04/08 19:58:18;;;;;;;6.05;3.85;;;;;;;;;;10413180;28;20087;-52
2023/04/08 20:03:18;;;;;;;7.57;3.50;;;;;;;;;;10412489;28;20381;-51
2023/04/08 20:08:19;;;;;;;5.15;3.67;;;;;;;;;;10408833;28;20060;-50
2023/04/08 20:13:20;;;;;;;7.53;4.20;;;;;;;;;;10409991;28;20032;-50
2023/04/08 20:18:20;;;;;;;4.40;3.30;;;;;;;;;;10410228;28;20029;-50
2023/04/08 20:23:21;;;;;;;5.85;3.55;;;;;;;;;;10401483;28;20033;-50
2023/04/08 20:28:22;;;;;;;5.97;3.55;;;;;;;;;;10399241;28;20033;-51
2023/04/08 20:33:23;;;;;;;4.88;3.30;;;;;;;;;;10406710;28;20462;-54
2023/04/08 20:38:27;;;;;;;13.10;3.58;;;;;;;;;;10410517;28;20053;-50
2023/04/08 20:43:27;;;;;;;9.15;3.55;;;;;;;;;;10410012;28;20056;-50
2023/04/08 20:48:28;;;;;;;10.75;3.47;;;;;;;;;;10409706;28;20536;-50
2023/04/08 20:53:28;;;;;;;8.10;3.90;;;;;;;;;;10403964;28;20135;-51
2023/04/08 20:58:30;;;;;;;10.73;3.58;;;;;;;;;;10409056;28;20038;-50
2023/04/08 21:03:31;;;;;;;4.72;3.10;;;;;;;;;;10407849;28;20025;-50
2023/04/08 21:08:31;;;;;;;5.07;3.10;;;;;;;;;;10407219;28;20458;-49
2023/04/08 21:13:32;;;;;;;7.78;3.40;;;;;;;;;;10406425;28;20021;-51
2023/04/08 21:18:33;;;;;;;9.82;3.40;;;;;;;;;;10408873;28;20079;-52
2023/04/08 21:23:33;;;;;;;7.03;3.10;;;;;;;;;;10408664;28;20031;-52
2023/04/08 21:28:34;;;;;;;6.93;3.00;;;;;;;;;;10410324;28;20041;-50
2023/04/08 21:33:34;;;;;;;17.67;3.80;;;;;;;;;;10409497;28;20030;-51
2023/04/08 21:38:35;;;;;;;10.77;3.30;;;;;;;;;;10408942;28;20017;-51
2023/04/08 21:43:36;;;;;;;12.68;3.20;;;;;;;;;;10404901;28;20044;-54
2023/04/08 21:48:36;;;;;;;10.50;3.72;;;;;;;;;;10410165;28;20465;-51
2023/04/08 21:53:37;;;;;;;8.93;3.97;;;;;;;;;;10398594;28;20098;-51
2023/04/08 21:58:38;;;;;;;11.32;3.80;;;;;;;;;;10378740;28;20038;-50
2023/04/08 22:03:39;;;;;;;7.95;3.60;;;;;;;;;;10373954;28;20030;-48
2023/04/08 22:08:39;;;;;;;10.93;3.72;;;;;;;;;;10374904;28;20096;-51
2023/04/08 22:13:40;;;;;;;8.57;3.55;;;;;;;;;;10399685;28;20393;-50
2023/04/08 22:18:40;;;;;;;10.77;3.58;;;;;;;;;;10406881;28;20017;-50
2023/04/08 22:23:41;;;;;;;10.75;3.80;;;;;;;;;;10406944;28;20029;-49
2023/04/08 22:28:42;;;;;;;12.23;3.08;;;;;;;;;;10413103;28;20429;-52
2023/04/08 22:33:43;;;;;;;26.85;3.53;;;;;;;;;;10409110;28;20029;-52
2023/04/08 22:38:45;;;;;;;9.45;3.58;;;;;;;;;;10407631;28;20037;-51
2023/04/08 22:43:46;;;;;;;6.13;3.20;;;;;;;;;;10407787;28;20037;-52
2023/04/08 22:48:47;;;;;;;6.18;3.33;;;;;;;;;;10406655;28;20076;-52
2023/04/08 22:53:48;;;;;;;6.07;3.40;;;;;;;;;;10408569;28;20566;-50
2023/04/08 22:58:49;;;;;;;7.53;2.92;;;;;;;;;;10416788;28;20120;-50
2023/04/08 23:03:50;;;;;;;5.65;3.20;;;;;;;;;;10415123;28;20026;-52
2023/04/08 23:08:50;;;;;;;5.43;2.85;;;;;;;;;;10415681;28;20473;-51
2023/04/08 23:13:51;;;;;;;8.20;3.35;;;;;;;;;;10415159;28;20041;-49
2023/04/08 23:18:51;;;;;;;7.15;3.20;;;;;;;;;;10414863;28;20075;-50
2023/04/08 23:23:52;;;;;;;6.00;3.15;;;;;;;;;;10414428;28;20021;-50
2023/04/08 23:28:53;;;;;;;6.05;2.95;;;;;;;;;;10418178;28;20060;-50
2023/04/08 23:33:53;;;;;;;9.05;3.00;;;;;;;;;;10415107;28;20420;-51
2023/04/08 23:38:54;;;;;;;5.07;2.42;;;;;;;;;;10413941;28;20033;-51
2023/04/08 23:43:54;;;;;;;4.68;2.92;;;;;;;;;;10414771;28;20045;-52
2023/04/08 23:48:55;;;;;;;6.55;2.72;;;;;;;;;;10413449;28;20030;-51
2023/04/08 23:53:56;;;;;;;4.97;3.13;;;;;;;;;;10414211;28;20382;-50
2023/04/08 23:58:56;;;;;;;8.32;2.97;;;;;;;;;;10414399;28;20413;-49
